Time;durP1;ratioP1;P1;durP2;ratioP2;P2;SDS_P1;SDS_P2;PMS_P1;PMS_P2;Temp;Humidity;BMP_temperature;BMP_pressure;BME280_temperature;BME280_humidity;BME280_pressure;Samples;Min_cycle;Max_cycle;Signal;HPM_P1;HPM_P2
2022/01/28 00:01:35;;;;;;;1.48;0.63;;;24.30;63.10;;;;;;5034647;28;20344;-74
2022/01/28 00:04:12;;;;;;;1.90;1.15;;;24.30;63.10;;;;;;5035382;28;20460;-78
2022/01/28 00:06:40;;;;;;;2.05;0.70;;;24.30;63.30;;;;;;5034482;28;20044;-83
2022/01/28 00:09:07;;;;;;;1.98;0.70;;;24.30;63.30;;;;;;5035273;28;20395;-71
2022/01/28 00:11:35;;;;;;;9.15;1.10;;;24.30;63.30;;;;;;5034388;28;20380;-80
2022/01/28 00:14:27;;;;;;;17.95;1.48;;;24.30;63.40;;;;;;5034702;28;20018;-75
2022/01/28 00:38:44;;;;;;;;;;;24.00;64.60;;;;;;5034172;28;20392;-72
2022/01/28 00:41:12;;;;;;;9.55;1.20;;;24.00;64.00;;;;;;5015499;28;20300;-86
2022/01/28 00:43:41;;;;;;;1.80;0.70;;;24.00;64.10;;;;;;5032433;28;20376;-82
2022/01/28 00:46:10;;;;;;;5.28;0.80;;;24.00;64.10;;;;;;5034051;28;20395;-77
2022/01/28 00:48:38;;;;;;;3.40;0.68;;;24.00;64.20;;;;;;5033234;28;20449;-77
2022/01/28 00:51:05;;;;;;;0.68;0.68;;;24.00;64.30;;;;;;5034096;28;20503;-75
2022/01/28 00:53:32;;;;;;;2.55;0.70;;;24.00;64.30;;;;;;5033616;28;20025;-83
2022/01/28 00:55:59;;;;;;;1.60;1.20;;;24.00;64.40;;;;;;5012702;28;20504;-75
2022/01/28 00:58:27;;;;;;;4.95;0.85;;;24.00;64.50;;;;;;5013938;28;20372;-82
2022/01/28 01:00:54;;;;;;;3.67;1.50;;;24.00;64.60;;;;;;5012284;28;20105;-83
2022/01/28 01:03:21;;;;;;;2.45;0.60;;;23.90;64.90;;;;;;5014140;28;20519;-82
2022/01/28 01:05:48;;;;;;;1.23;0.77;;;23.90;64.80;;;;;;5013461;28;20017;-76
2022/01/28 01:08:15;;;;;;;3.75;1.17;;;23.90;64.80;;;;;;5014008;28;20465;-72
2022/01/28 01:10:42;;;;;;;2.10;1.15;;;23.90;64.80;;;;;;5011172;28;20377;-82
2022/01/28 01:13:10;;;;;;;6.15;1.40;;;23.90;64.90;;;;;;5013772;28;20421;-82
2022/01/28 01:15:42;;;;;;;13.57;1.23;;;23.90;64.90;;;;;;5013419;28;20364;-79
2022/01/28 01:18:24;;;;;;;4.00;0.98;;;23.80;64.90;;;;;;5013698;28;20457;-80
2022/01/28 01:21:00;;;;;;;1.95;0.88;;;23.80;64.90;;;;;;5014241;28;20029;-71
2022/01/28 01:23:31;;;;;;;5.40;1.13;;;23.80;65.00;;;;;;5012628;28;20487;-85
2022/01/28 01:28:33;;;;;;;3.58;0.98;;;23.80;65.10;;;;;;5012796;28;20456;-82
2022/01/28 01:31:02;;;;;;;3.35;1.00;;;23.80;65.10;;;;;;5013612;28;20495;-75
2022/01/28 01:33:35;;;;;;;7.63;1.30;;;23.80;65.20;;;;;;5012991;28;20449;-79
2022/01/28 01:36:03;;;;;;;5.25;0.95;;;23.70;65.40;;;;;;5013080;28;20076;-76
2022/01/28 01:38:34;;;;;;;2.88;0.85;;;23.70;65.40;;;;;;5013431;28;20485;-78
2022/01/28 01:41:04;;;;;;;5.82;1.25;;;23.70;65.30;;;;;;5012539;28;20497;-71
2022/01/28 01:43:46;;;;;;;5.78;1.35;;;23.70;65.40;;;;;;5013406;28;20460;-81
2022/01/28 01:46:28;;;;;;;9.00;1.38;;;23.70;65.30;;;;;;5012327;28;20516;-82
2022/01/28 01:54:27;;;;;;;1.42;0.95;;;23.60;65.90;;;;;;5013021;28;20053;-73
2022/01/28 01:56:55;;;;;;;2.55;0.73;;;23.60;65.80;;;;;;5032810;28;20405;-77
2022/01/28 01:59:23;;;;;;;2.15;1.00;;;23.60;65.80;;;;;;5031916;28;20480;-80
2022/01/28 02:01:51;;;;;;;4.38;1.17;;;23.60;65.80;;;;;;5032838;28;20452;-74
2022/01/28 02:04:18;;;;;;;5.28;0.80;;;23.60;65.80;;;;;;5031639;28;20545;-79
2022/01/28 02:06:46;;;;;;;1.77;1.05;;;23.60;65.80;;;;;;5032554;28;20049;-72
2022/01/28 02:09:16;;;;;;;2.95;1.08;;;23.50;65.70;;;;;;5031246;28;20030;-72
2022/01/28 02:11:44;;;;;;;5.03;1.00;;;23.50;65.70;;;;;;5032401;28;20025;-78
2022/01/28 02:14:12;;;;;;;3.10;1.23;;;23.50;65.80;;;;;;5031892;28;20367;-76
2022/01/28 02:16:41;;;;;;;1.48;1.02;;;23.50;65.80;;;;;;5032138;28;20353;-76
2022/01/28 02:19:08;;;;;;;3.75;1.27;;;23.50;65.90;;;;;;5014513;28;20376;-78
2022/01/28 02:21:52;;;;;;;3.65;1.50;;;23.50;66.00;;;;;;5031761;28;20468;-74
2022/01/28 02:24:32;;;;;;;3.05;0.95;;;23.50;65.90;;;;;;5014796;28;20025;-72
2022/01/28 02:27:01;;;;;;;2.13;0.88;;;23.50;66.00;;;;;;5013666;28;20101;-81
2022/01/28 02:29:31;;;;;;;5.28;0.95;;;23.50;66.00;;;;;;5014710;28;20460;-76
2022/01/28 02:32:01;;;;;;;5.80;2.30;;;23.40;66.00;;;;;;5031513;28;20523;-83
2022/01/28 02:34:29;;;;;;;2.13;1.00;;;23.40;66.10;;;;;;5014301;28;20456;-73
2022/01/28 02:36:56;;;;;;;10.48;1.27;;;23.40;66.10;;;;;;5013534;28;20041;-84
2022/01/28 02:39:24;;;;;;;14.00;2.72;;;23.40;66.30;;;;;;5032092;28;20384;-78
2022/01/28 02:41:58;;;;;;;6.00;1.35;;;23.40;66.40;;;;;;5031763;28;20387;-77
2022/01/28 02:44:49;;;;;;;8.25;1.52;;;23.40;66.30;;;;;;5031503;28;20057;-70
2022/01/28 02:47:29;;;;;;;3.08;0.93;;;23.40;66.30;;;;;;5032085;28;20506;-74
2022/01/28 02:49:56;;;;;;;3.10;0.93;;;23.40;66.30;;;;;;5031239;28;20032;-85
2022/01/28 02:52:35;;;;;;;15.55;2.03;;;23.40;66.30;;;;;;5014182;28;20480;-83
2022/01/28 02:55:07;;;;;;;26.17;2.67;;;23.40;66.80;;;;;;5030908;28;20472;-71
2022/01/28 02:57:38;;;;;;;23.10;10.07;;;23.40;66.70;;;;;;5031636;28;20371;-74
2022/01/28 03:00:06;;;;;;;26.02;8.48;;;23.40;66.70;;;;;;5031747;28;20453;-81
2022/01/28 03:02:33;;;;;;;18.88;5.07;;;23.30;66.60;;;;;;5030921;28;20388;-73
2022/01/28 03:05:30;;;;;;;10.13;2.83;;;23.40;66.60;;;;;;5033657;28;20536;-81
2022/01/28 03:07:54;;;;;;;11.00;1.73;;;23.30;66.40;;;;;;5034847;28;20032;-75
2022/01/28 03:10:39;;;;;;;3.28;1.30;;;23.30;66.50;;;;;;5035878;28;20464;-74
2022/01/28 03:13:20;;;;;;;3.72;1.30;;;23.30;66.50;;;;;;5035181;28;20509;-78
2022/01/28 03:15:53;;;;;;;3.67;1.00;;;23.30;66.50;;;;;;5017773;28;20468;-76
2022/01/28 03:18:28;;;;;;;12.88;2.38;;;23.20;66.60;;;;;;5035268;28;20448;-73
2022/01/28 03:21:00;;;;;;;27.63;3.03;;;23.20;66.80;;;;;;5035060;28;20414;-72
2022/01/28 03:23:31;;;;;;;15.38;2.10;;;23.20;66.90;;;;;;5035523;28;20486;-78
2022/01/28 03:25:59;;;;;;;13.10;2.03;;;23.20;67.00;;;;;;5035139;28;20076;-77
2022/01/28 03:28:26;;;;;;;7.88;2.42;;;23.20;67.10;;;;;;5035585;28;20467;-77
2022/01/28 03:30:53;;;;;;;10.85;2.38;;;23.20;67.00;;;;;;5034504;28;20028;-79
2022/01/28 03:33:20;;;;;;;11.02;1.42;;;23.30;67.60;;;;;;5035165;28;20455;-81
2022/01/28 03:35:48;;;;;;;47.90;19.95;;;23.20;67.50;;;;;;5034609;28;20021;-79
2022/01/28 03:38:15;;;;;;;27.48;16.02;;;23.00;67.80;;;;;;5035299;28;20364;-79
2022/01/28 03:40:42;;;;;;;25.13;16.52;;;23.00;68.20;;;;;;5016994;28;20456;-74
2022/01/28 03:43:10;;;;;;;18.27;8.75;;;23.00;68.10;;;;;;5034227;28;20025;-78
2022/01/28 03:45:37;;;;;;;14.52;5.03;;;23.00;68.10;;;;;;5035480;28;20337;-83
2022/01/28 03:48:04;;;;;;;30.33;9.23;;;23.00;68.00;;;;;;5034321;28;20427;-82
2022/01/28 03:50:34;;;;;;;13.98;10.13;;;23.00;68.00;;;;;;5035606;28;20049;-75
2022/01/28 03:53:06;;;;;;;11.98;7.25;;;23.00;67.90;;;;;;5034570;28;20464;-82
2022/01/28 03:55:33;;;;;;;7.32;4.15;;;23.00;67.80;;;;;;5035066;28;20392;-82
2022/01/28 03:58:01;;;;;;;5.25;2.88;;;23.00;67.80;;;;;;5034591;28;20533;-75
2022/01/28 04:00:31;;;;;;;7.00;2.47;;;23.00;67.70;;;;;;5035737;28;20406;-76
2022/01/28 04:11:31;;;;;;;13.43;3.55;;;23.00;68.40;;;;;;5035477;28;20072;-77
2022/01/28 04:14:09;;;;;;;9.25;1.20;;;23.00;68.50;;;;;;5016999;28;20441;-70
2022/01/28 04:19:21;;;;;;;;;;;23.00;68.90;;;;;;5035668;28;20024;-84
2022/01/28 04:21:49;;;;;;;10.65;1.48;;;23.00;69.00;;;;;;5018112;28;19901;-78
2022/01/28 04:24:16;;;;;;;47.30;2.92;;;23.00;68.80;;;;;;5033700;28;20457;-77
2022/01/28 04:26:44;;;;;;;16.88;4.63;;;23.00;68.80;;;;;;5035336;28;20392;-87
2022/01/28 04:29:13;;;;;;;19.80;7.95;;;23.00;69.00;;;;;;5033468;28;20029;-81
2022/01/28 04:31:45;;;;;;;15.23;6.18;;;23.00;69.10;;;;;;5035238;28;20013;-76
2022/01/28 04:34:14;;;;;;;15.75;3.40;;;23.00;69.10;;;;;;5034446;28;20583;-84
2022/01/28 04:39:38;;;;;;;24.10;3.25;;;23.00;69.10;;;;;;5034626;28;20021;-82
2022/01/28 04:47:54;;;;;;;15.43;2.60;;;23.10;69.60;;;;;;5034971;28;20452;-81
2022/01/28 05:01:01;;;;;;;7.57;2.97;;;23.10;69.70;;;;;;5034758;28;20488;-84
2022/01/28 05:04:11;;;;;;;12.10;3.38;;;23.10;69.70;;;;;;5033840;28;20515;-81
2022/01/28 05:06:51;;;;;;;10.30;1.88;;;23.10;69.90;;;;;;5031106;28;20033;-83
2022/01/28 05:12:42;;;;;;;6.45;2.38;;;23.10;69.90;;;;;;5033877;28;20044;-84
2022/01/28 05:15:19;;;;;;;8.13;2.30;;;23.10;69.90;;;;;;5033362;28;20380;-79
2022/01/28 05:28:19;;;;;;;15.88;1.92;;;23.10;70.50;;;;;;5032039;28;20467;-75
2022/01/28 05:30:46;;;;;;;6.93;1.85;;;23.20;70.60;;;;;;5033408;28;20514;-80
2022/01/28 05:33:14;;;;;;;22.42;4.35;;;23.20;70.70;;;;;;5032484;28;20018;-82
2022/01/28 05:35:41;;;;;;;13.60;2.85;;;23.20;70.70;;;;;;5032833;28;20372;-79
2022/01/28 05:38:09;;;;;;;15.32;3.17;;;23.20;71.20;;;;;;5032919;28;20519;-80
2022/01/28 05:40:37;;;;;;;4.82;2.00;;;23.20;71.50;;;;;;5014633;28;20464;-81
2022/01/28 05:43:04;;;;;;;23.13;3.72;;;23.20;71.30;;;;;;5033073;28;20534;-85
2022/01/28 05:45:32;;;;;;;9.55;2.50;;;23.30;71.40;;;;;;5031648;28;20527;-77
2022/01/28 05:48:00;;;;;;;26.05;4.80;;;23.30;71.50;;;;;;5031995;28;20387;-82
2022/01/28 05:50:28;;;;;;;21.48;3.50;;;23.30;71.70;;;;;;5031642;28;20534;-82
2022/01/28 05:52:55;;;;;;;14.18;2.67;;;23.40;71.70;;;;;;5032796;28;20544;-82
2022/01/28 05:55:22;;;;;;;88.63;8.93;;;23.40;71.70;;;;;;5031741;28;20427;-82
2022/01/28 05:57:50;;;;;;;63.85;6.43;;;23.40;72.20;;;;;;5032331;28;20563;-80
2022/01/28 06:00:17;;;;;;;32.05;4.10;;;23.40;72.10;;;;;;5032504;28;20468;-74
2022/01/28 06:02:45;;;;;;;22.27;3.65;;;23.40;71.90;;;;;;5032011;28;20372;-79
2022/01/28 06:05:13;;;;;;;15.13;2.35;;;23.50;71.70;;;;;;5032550;28;20543;-78
2022/01/28 06:07:43;;;;;;;29.08;3.38;;;23.50;71.60;;;;;;5031139;28;20028;-76
2022/01/28 06:10:18;;;;;;;19.17;2.25;;;23.50;71.50;;;;;;5032354;28;20341;-75
2022/01/28 06:12:49;;;;;;;25.63;3.50;;;23.60;71.50;;;;;;5031447;28;20800;-74
2022/01/28 06:15:17;;;;;;;23.08;3.25;;;23.60;71.50;;;;;;5032422;28;20472;-80
2022/01/28 06:17:46;;;;;;;28.25;3.22;;;23.60;71.50;;;;;;5031749;28;20483;-79
2022/01/28 06:20:18;;;;;;;20.65;2.92;;;23.70;71.80;;;;;;5031563;28;20067;-76
2022/01/28 06:22:46;;;;;;;19.27;2.47;;;23.70;72.50;;;;;;5032057;28;20461;-76
2022/01/28 06:25:14;;;;;;;12.88;1.73;;;23.70;71.70;;;;;;5031331;28;20465;-79
2022/01/28 06:27:42;;;;;;;10.32;2.65;;;23.80;71.80;;;;;;5014682;28;20487;-81
2022/01/28 06:30:13;;;;;;;6.75;1.60;;;23.80;71.60;;;;;;5031274;28;20417;-81
2022/01/28 06:32:40;;;;;;;10.00;2.28;;;23.90;71.60;;;;;;5032235;28;20460;-79
2022/01/28 06:35:08;;;;;;;10.23;1.50;;;23.90;71.50;;;;;;5030845;28;20496;-79
2022/01/28 06:37:40;;;;;;;8.82;1.88;;;23.90;71.30;;;;;;5031667;28;20384;-80
2022/01/28 06:40:12;;;;;;;5.70;1.67;;;24.00;71.20;;;;;;5014134;28;20479;-74
2022/01/28 06:42:40;;;;;;;10.30;1.67;;;24.00;71.00;;;;;;5031246;28;20416;-81
2022/01/28 06:45:09;;;;;;;7.07;1.52;;;24.00;70.70;;;;;;5032064;28;20528;-79
2022/01/28 06:47:37;;;;;;;3.88;1.20;;;24.10;70.60;;;;;;5030948;28;20491;-74
2022/01/28 06:50:07;;;;;;;11.10;1.40;;;24.10;70.40;;;;;;5032095;28;20461;-76
2022/01/28 06:52:36;;;;;;;3.83;1.27;;;24.10;70.00;;;;;;5031143;28;20013;-74
2022/01/28 06:55:07;;;;;;;6.20;1.73;;;24.20;69.80;;;;;;5031815;28;20392;-75
2022/01/28 06:57:33;;;;;;;6.03;2.42;;;24.20;69.70;;;;;;5030914;28;20360;-78
2022/01/28 07:00:03;;;;;;;4.00;1.30;;;24.20;69.70;;;;;;5031593;28;20468;-74
2022/01/28 07:02:30;;;;;;;5.25;1.63;;;24.20;69.60;;;;;;5031318;28;20490;-80
2022/01/28 07:04:58;;;;;;;13.02;1.50;;;24.30;69.40;;;;;;5031384;28;20344;-76
2022/01/28 07:07:30;;;;;;;4.70;1.20;;;24.40;69.40;;;;;;5031726;28;20479;-80
2022/01/28 07:09:58;;;;;;;12.88;2.00;;;24.40;68.90;;;;;;5030413;28;20494;-79
2022/01/28 07:12:27;;;;;;;13.25;1.52;;;24.40;68.40;;;;;;5031455;28;20479;-83
2022/01/28 07:14:56;;;;;;;5.13;1.15;;;24.40;68.20;;;;;;5030407;28;20460;-81
2022/01/28 07:17:24;;;;;;;7.95;1.63;;;24.40;68.10;;;;;;5031510;28;20380;-80
2022/01/28 07:19:51;;;;;;;6.85;1.48;;;24.40;67.90;;;;;;5013065;28;20071;-80
2022/01/28 07:22:18;;;;;;;18.83;1.90;;;24.40;67.80;;;;;;5030138;28;20368;-81
2022/01/28 07:24:45;;;;;;;9.98;1.25;;;24.40;68.00;;;;;;5030788;28;20359;-81
2022/01/28 07:27:19;;;;;;;17.80;2.28;;;24.40;68.30;;;;;;5031557;28;20361;-82
2022/01/28 07:29:50;;;;;;;18.00;3.53;;;24.40;68.60;;;;;;5031058;28;20360;-77
2022/01/28 07:32:18;;;;;;;19.23;3.33;;;24.40;69.10;;;;;;5030872;28;20021;-79
2022/01/28 07:34:47;;;;;;;7.65;1.70;;;24.40;70.00;;;;;;5031556;28;20356;-77
2022/01/28 07:37:14;;;;;;;8.80;2.33;;;24.40;70.10;;;;;;5030154;28;20025;-81
2022/01/28 07:39:42;;;;;;;4.65;1.13;;;24.40;70.00;;;;;;5030425;28;20519;-80
2022/01/28 07:42:12;;;;;;;3.42;1.48;;;24.40;69.70;;;;;;5012989;28;20021;-81
2022/01/28 07:44:40;;;;;;;5.05;1.15;;;24.40;69.40;;;;;;5031284;28;20364;-76
2022/01/28 07:47:11;;;;;;;4.93;1.20;;;24.40;69.60;;;;;;5012710;28;20029;-77
2022/01/28 07:49:38;;;;;;;18.05;2.08;;;24.50;70.10;;;;;;5031406;28;20407;-76
2022/01/28 07:52:06;;;;;;;5.07;0.70;;;24.40;70.50;;;;;;5034085;28;20395;-81
2022/01/28 07:54:33;;;;;;;6.82;0.80;;;24.50;70.80;;;;;;5034726;28;20369;-82
2022/01/28 07:57:02;;;;;;;9.35;0.90;;;24.50;71.60;;;;;;5034216;28;20030;-79
2022/01/28 07:59:29;;;;;;;4.55;0.68;;;24.50;72.20;;;;;;5016435;28;20444;-78
2022/01/28 08:01:56;;;;;;;3.47;0.60;;;24.50;72.80;;;;;;5033721;28;20452;-79
2022/01/28 08:04:24;;;;;;;1.95;0.50;;;24.50;73.80;;;;;;5016092;28;20468;-78
2022/01/28 08:06:53;;;;;;;2.38;0.60;;;24.50;74.10;;;;;;5034787;28;20436;-77
2022/01/28 08:09:22;;;;;;;1.77;0.50;;;24.50;74.70;;;;;;5033682;28;20460;-79
2022/01/28 08:11:54;;;;;;;0.80;0.80;;;24.40;75.60;;;;;;5033495;28;20047;-79
2022/01/28 08:14:21;;;;;;;0.68;0.68;;;24.40;76.70;;;;;;5033677;28;20389;-77
2022/01/28 08:16:49;;;;;;;1.08;0.90;;;24.30;77.10;;;;;;5034420;28;20408;-76
2022/01/28 08:19:16;;;;;;;4.03;1.05;;;24.30;77.40;;;;;;5033465;28;20017;-78
2022/01/28 08:21:43;;;;;;;2.88;1.08;;;24.20;77.50;;;;;;5034379;28;20364;-79
2022/01/28 08:24:10;;;;;;;1.13;0.75;;;24.20;77.80;;;;;;5033992;28;20376;-80
2022/01/28 08:26:38;;;;;;;2.85;0.73;;;24.10;78.10;;;;;;5033772;28;20341;-81
2022/01/28 08:29:06;;;;;;;1.33;0.68;;;24.10;78.20;;;;;;5034169;28;20032;-78
2022/01/28 08:31:36;;;;;;;2.67;1.15;;;24.10;78.00;;;;;;5033402;28;20360;-80
2022/01/28 08:34:04;;;;;;;4.10;0.88;;;24.10;77.70;;;;;;5034211;28;20472;-79
2022/01/28 08:36:33;;;;;;;4.43;1.40;;;24.10;77.30;;;;;;5033082;28;20419;-82
2022/01/28 08:39:04;;;;;;;4.57;1.20;;;24.00;76.80;;;;;;5034179;28;20417;-79
2022/01/28 08:41:34;;;;;;;3.75;1.33;;;24.00;76.50;;;;;;5032995;28;20448;-79
2022/01/28 08:44:03;;;;;;;4.18;1.80;;;24.10;76.20;;;;;;5016256;28;20423;-78
2022/01/28 08:46:31;;;;;;;4.55;1.60;;;24.00;74.80;;;;;;5033028;28;20372;-79
2022/01/28 08:48:59;;;;;;;6.55;2.08;;;24.00;74.50;;;;;;5033875;28;20506;-79
2022/01/28 08:51:27;;;;;;;7.25;1.55;;;24.00;74.00;;;;;;5033441;28;20389;-81
2022/01/28 08:53:54;;;;;;;9.98;2.08;;;24.10;73.80;;;;;;5033425;28;20360;-79
2022/01/28 08:56:23;;;;;;;8.40;2.67;;;24.10;73.60;;;;;;5033513;28;20395;-79
2022/01/28 08:58:51;;;;;;;9.55;2.08;;;24.20;73.40;;;;;;5032925;28;20345;-83
2022/01/28 09:01:18;;;;;;;11.70;2.63;;;24.20;73.10;;;;;;5032321;28;20497;-79
2022/01/28 09:03:47;;;;;;;7.65;2.10;;;24.30;72.90;;;;;;5032076;28;20017;-78
2022/01/28 09:06:15;;;;;;;10.02;1.75;;;24.40;72.40;;;;;;5033688;28;20464;-82
2022/01/28 09:08:43;;;;;;;9.27;2.05;;;24.40;71.90;;;;;;5032553;28;20028;-77
2022/01/28 09:13:55;;;;;;;8.60;1.80;;;24.50;69.60;;;;;;5032560;28;20036;-81
2022/01/28 09:16:26;;;;;;;8.95;2.22;;;24.50;69.40;;;;;;5031634;28;20478;-81
2022/01/28 09:18:56;;;;;;;7.63;1.92;;;24.50;69.20;;;;;;5033024;28;20437;-81
2022/01/28 09:21:25;;;;;;;9.55;2.95;;;24.50;68.80;;;;;;5031762;28;20033;-82
2022/01/28 09:23:56;;;;;;;6.88;2.45;;;24.50;68.40;;;;;;5032239;28;20457;-81
2022/01/28 09:26:26;;;;;;;14.30;2.97;;;24.60;68.40;;;;;;5014243;28;20179;-80
2022/01/28 09:28:56;;;;;;;7.78;2.13;;;24.50;68.10;;;;;;5032840;28;20049;-82
2022/01/28 09:31:24;;;;;;;9.90;2.38;;;24.60;67.70;;;;;;5031433;28;20021;-82
2022/01/28 09:33:55;;;;;;;17.13;2.67;;;24.60;67.20;;;;;;5032933;28;20365;-80
2022/01/28 09:36:26;;;;;;;18.25;2.70;;;24.60;66.60;;;;;;5032060;28;20456;-78
2022/01/28 09:38:57;;;;;;;6.15;1.92;;;24.60;65.90;;;;;;5014174;28;20360;-82
2022/01/28 09:41:26;;;;;;;8.02;3.53;;;24.70;65.60;;;;;;5030798;28;20530;-78
2022/01/28 09:43:56;;;;;;;12.48;3.78;;;24.70;65.40;;;;;;5013313;28;20475;-81
2022/01/28 09:46:26;;;;;;;11.85;3.70;;;24.80;65.20;;;;;;5014857;28;20346;-81
2022/01/28 09:48:57;;;;;;;9.68;2.63;;;24.80;64.90;;;;;;5031163;28;20460;-80
2022/01/28 09:51:29;;;;;;;15.43;2.80;;;24.90;64.80;;;;;;5032153;28;20363;-79
2022/01/28 09:54:01;;;;;;;10.80;2.75;;;25.00;64.50;;;;;;5013633;28;20057;-82
2022/01/28 09:56:33;;;;;;;10.95;3.50;;;25.10;64.10;;;;;;5032166;28;20558;-83
2022/01/28 09:59:04;;;;;;;7.28;1.63;;;25.20;63.60;;;;;;5031697;28;20429;-81
2022/01/28 10:01:35;;;;;;;9.00;2.83;;;25.30;63.40;;;;;;5031337;28;20009;-83
2022/01/28 10:04:09;;;;;;;8.75;2.58;;;25.30;63.10;;;;;;5014448;28;20022;-82
2022/01/28 10:06:39;;;;;;;11.55;1.90;;;25.40;62.20;;;;;;5030909;28;20093;-81
2022/01/28 10:09:14;;;;;;;9.10;2.13;;;25.50;61.80;;;;;;5032154;28;20017;-81
2022/01/28 10:11:47;;;;;;;19.40;3.60;;;25.60;61.40;;;;;;5030469;28;20460;-80
2022/01/28 10:14:23;;;;;;;7.78;2.15;;;25.60;61.00;;;;;;5031820;28;20423;-76
2022/01/28 10:16:58;;;;;;;11.52;2.08;;;25.60;60.70;;;;;;5031437;28;20037;-78
2022/01/28 10:19:27;;;;;;;9.23;1.80;;;25.70;60.50;;;;;;5030905;28;20472;-79
2022/01/28 10:21:55;;;;;;;7.93;3.38;;;25.80;60.50;;;;;;5031859;28;20388;-75
2022/01/28 10:24:25;;;;;;;6.63;1.77;;;25.80;60.10;;;;;;5031386;28;20361;-77
2022/01/28 10:27:05;;;;;;;11.20;1.77;;;25.80;59.70;;;;;;5032192;28;20017;-75
2022/01/28 10:29:37;;;;;;;10.23;2.03;;;25.80;59.50;;;;;;5031169;28;20508;-77
2022/01/28 10:32:07;;;;;;;7.95;2.25;;;25.90;59.50;;;;;;5032003;28;20479;-77
2022/01/28 10:34:37;;;;;;;4.20;2.00;;;25.90;59.00;;;;;;5013575;28;20361;-75
2022/01/28 10:37:32;;;;;;;6.90;1.75;;;26.00;59.00;;;;;;5031463;28;20469;-77
2022/01/28 10:40:02;;;;;;;4.30;1.80;;;26.00;58.80;;;;;;5014442;28;20032;-78
2022/01/28 10:42:51;;;;;;;5.70;1.40;;;26.00;58.70;;;;;;5031313;28;20022;-80
2022/01/28 10:45:21;;;;;;;9.35;1.52;;;26.10;58.60;;;;;;5032592;28;20029;-77
2022/01/28 10:47:56;;;;;;;8.07;1.63;;;26.20;58.40;;;;;;5030031;28;20353;-78
2022/01/28 10:50:34;;;;;;;4.93;1.50;;;26.20;58.20;;;;;;5031644;28;20392;-80
2022/01/28 10:53:07;;;;;;;5.53;2.53;;;26.30;57.90;;;;;;5032048;28;20108;-79
2022/01/28 10:55:40;;;;;;;5.47;1.60;;;26.40;57.70;;;;;;5030823;28;20434;-75
2022/01/28 10:58:15;;;;;;;5.77;1.83;;;26.40;57.60;;;;;;5031855;28;20468;-77
2022/01/28 11:00:45;;;;;;;8.25;2.50;;;26.40;57.40;;;;;;5030943;28;20372;-77
2022/01/28 11:03:27;;;;;;;7.20;1.38;;;26.50;57.40;;;;;;5031872;28;20368;-75
2022/01/28 11:05:58;;;;;;;8.50;1.67;;;26.60;57.10;;;;;;5031281;28;20368;-76
2022/01/28 11:08:31;;;;;;;7.63;2.33;;;26.70;57.00;;;;;;5031350;28;20611;-77
2022/01/28 11:11:01;;;;;;;6.72;2.22;;;26.70;56.80;;;;;;5031762;28;20107;-80
2022/01/28 11:13:29;;;;;;;11.43;1.80;;;26.80;56.80;;;;;;5030303;28;20416;-78
2022/01/28 11:15:57;;;;;;;6.68;2.47;;;26.90;56.60;;;;;;5013754;28;20364;-82
2022/01/28 11:18:26;;;;;;;13.05;2.20;;;26.90;56.60;;;;;;5030785;28;20492;-76
2022/01/28 11:21:04;;;;;;;4.72;1.85;;;27.00;56.20;;;;;;5031536;28;20407;-79
2022/01/28 11:23:34;;;;;;;8.25;2.33;;;27.00;55.80;;;;;;5031545;28;20457;-77
2022/01/28 11:26:23;;;;;;;7.95;2.60;;;27.00;55.30;;;;;;5032784;28;20392;-75
2022/01/28 11:28:55;;;;;;;10.75;2.08;;;27.10;55.50;;;;;;5035509;28;20020;-79
2022/01/28 11:31:43;;;;;;;4.05;2.17;;;27.10;55.50;;;;;;5034471;28;20372;-77
2022/01/28 11:34:31;;;;;;;8.18;2.42;;;27.10;55.30;;;;;;5035400;28;20396;-81
2022/01/28 11:36:59;;;;;;;10.23;2.53;;;27.20;55.10;;;;;;5034972;28;20376;-75
2022/01/28 11:39:41;;;;;;;9.20;2.88;;;27.20;54.90;;;;;;5016527;28;20480;-77
2022/01/28 11:42:18;;;;;;;13.10;2.45;;;27.30;55.00;;;;;;5035152;28;20453;-74
2022/01/28 11:44:59;;;;;;;7.43;2.58;;;27.30;54.70;;;;;;5034113;28;20029;-77
2022/01/28 11:47:30;;;;;;;4.60;1.83;;;27.30;54.60;;;;;;5035355;28;20376;-82
2022/01/28 11:49:59;;;;;;;11.88;2.50;;;27.30;54.50;;;;;;5034559;28;20416;-77
2022/01/28 11:52:43;;;;;;;8.45;2.22;;;27.30;54.60;;;;;;5034582;28;20049;-82
2022/01/28 11:55:26;;;;;;;6.88;1.88;;;27.40;54.70;;;;;;5034868;28;20445;-78
2022/01/28 11:58:05;;;;;;;7.30;1.85;;;27.40;54.10;;;;;;5034140;28;20057;-78
2022/01/28 12:00:35;;;;;;;11.77;3.13;;;27.40;54.20;;;;;;5034845;28;20412;-77
2022/01/28 12:03:19;;;;;;;10.63;2.88;;;27.50;53.80;;;;;;5034094;28;20411;-76
2022/01/28 12:05:46;;;;;;;5.35;1.92;;;27.50;53.30;;;;;;5034334;28;20349;-77
2022/01/28 12:08:15;;;;;;;5.88;2.95;;;27.50;53.30;;;;;;5034705;28;20368;-75
2022/01/28 12:10:45;;;;;;;10.10;2.22;;;27.50;53.30;;;;;;5016101;28;20397;-75
2022/01/28 12:13:16;;;;;;;8.27;2.55;;;27.50;53.20;;;;;;5034634;28;20415;-79
2022/01/28 12:16:00;;;;;;;8.23;2.47;;;27.50;52.80;;;;;;5033560;28;20492;-75
2022/01/28 12:18:53;;;;;;;8.32;2.80;;;27.50;52.80;;;;;;5016768;28;20574;-75
2022/01/28 12:21:34;;;;;;;11.23;3.15;;;27.50;52.80;;;;;;5024090;28;20461;-74
2022/01/28 12:24:19;;;;;;;8.40;1.70;;;27.50;52.50;;;;;;5033692;28;20057;-76
2022/01/28 12:27:08;;;;;;;4.38;2.22;;;27.60;52.20;;;;;;5034338;28;20357;-79
2022/01/28 12:29:46;;;;;;;9.90;3.08;;;27.60;52.10;;;;;;5033964;28;20360;-74
2022/01/28 12:32:13;;;;;;;9.48;2.90;;;27.70;51.70;;;;;;5033822;28;20360;-77
2022/01/28 12:34:47;;;;;;;6.60;2.17;;;27.60;51.30;;;;;;5034325;28;20408;-75
2022/01/28 12:37:21;;;;;;;9.70;2.90;;;27.70;51.40;;;;;;5033141;28;20474;-78
2022/01/28 12:40:13;;;;;;;8.55;2.10;;;27.70;51.30;;;;;;5034219;28;20583;-76
2022/01/28 12:42:40;;;;;;;10.18;2.65;;;27.70;51.40;;;;;;5033088;28;20486;-77
2022/01/28 12:45:09;;;;;;;6.53;2.38;;;27.70;51.20;;;;;;5034112;28;20022;-78
2022/01/28 12:47:36;;;;;;;11.48;3.53;;;27.70;51.30;;;;;;5033520;28;20021;-77
2022/01/28 12:50:05;;;;;;;12.05;2.50;;;27.80;51.20;;;;;;5032583;28;20348;-80
2022/01/28 12:52:37;;;;;;;8.95;2.58;;;27.80;50.90;;;;;;5034322;28;20025;-74
2022/01/28 12:55:06;;;;;;;5.72;2.50;;;27.80;50.80;;;;;;5032574;28;20379;-79
2022/01/28 12:57:33;;;;;;;12.43;2.50;;;27.80;50.60;;;;;;5033357;28;20387;-76
2022/01/28 13:00:01;;;;;;;13.40;2.20;;;27.90;50.30;;;;;;5032858;28;20079;-80
2022/01/28 13:02:34;;;;;;;8.85;3.17;;;27.90;50.10;;;;;;5034126;28;20416;-77
2022/01/28 13:10:32;;;;;;;8.68;2.45;;;27.90;49.80;;;;;;5033590;28;20476;-82
2022/01/28 13:13:16;;;;;;;8.82;2.17;;;27.90;49.80;;;;;;5014324;28;20017;-82
2022/01/28 13:15:57;;;;;;;11.27;2.88;;;27.80;49.60;;;;;;5033337;28;20364;-84
2022/01/28 13:18:28;;;;;;;10.80;3.10;;;27.80;49.40;;;;;;5031946;28;20037;-79
2022/01/28 13:21:13;;;;;;;10.80;2.70;;;27.90;50.20;;;;;;5033085;28;20422;-80
2022/01/28 13:23:44;;;;;;;9.75;3.17;;;27.90;49.40;;;;;;5032843;28;20026;-83
2022/01/28 13:26:13;;;;;;;8.48;2.95;;;27.90;49.20;;;;;;5032025;28;20147;-82
2022/01/28 13:28:45;;;;;;;12.40;2.50;;;27.90;49.20;;;;;;5032795;28;20029;-82
2022/01/28 13:31:24;;;;;;;7.05;2.42;;;27.80;49.10;;;;;;5032419;28;20511;-79
2022/01/28 13:34:02;;;;;;;6.30;1.98;;;27.80;48.80;;;;;;5033244;28;20460;-83
2022/01/28 13:36:53;;;;;;;12.57;2.90;;;27.80;48.80;;;;;;5033137;28;20460;-84
2022/01/28 13:39:28;;;;;;;9.35;2.75;;;27.90;48.90;;;;;;5016015;28;20020;-77
2022/01/28 13:42:15;;;;;;;87.27;10.10;;;28.00;48.40;;;;;;5014983;28;20020;-83
2022/01/28 13:44:50;;;;;;;53.95;7.10;;;27.90;48.70;;;;;;5033838;28;20403;-78
2022/01/28 13:47:20;;;;;;;42.13;5.38;;;27.90;49.30;;;;;;5014942;28;20326;-76
2022/01/28 13:49:59;;;;;;;20.92;4.07;;;27.90;50.00;;;;;;5032725;28;20487;-81
2022/01/28 13:52:49;;;;;;;38.03;5.65;;;27.90;50.00;;;;;;5032386;28;20357;-84
2022/01/28 13:55:41;;;;;;;26.92;3.50;;;27.90;50.00;;;;;;5032926;28;20417;-80
2022/01/28 13:58:11;;;;;;;29.27;4.30;;;27.90;50.70;;;;;;5015094;28;20048;-81
2022/01/28 14:00:48;;;;;;;14.85;3.28;;;27.90;50.80;;;;;;5033652;28;20396;-85
2022/01/28 14:03:27;;;;;;;36.90;4.18;;;27.90;50.70;;;;;;5015602;28;20415;-82
2022/01/28 14:06:04;;;;;;;57.10;5.00;;;27.90;50.90;;;;;;5033742;28;20519;-75
2022/01/28 14:08:53;;;;;;;24.27;4.93;;;27.90;50.50;;;;;;5032838;28;20477;-84
2022/01/28 14:11:51;;;;;;;19.05;4.53;;;27.90;50.60;;;;;;5033466;28;20449;-78
2022/01/28 14:14:33;;;;;;;18.70;4.55;;;27.90;50.90;;;;;;5014702;28;20388;-84
2022/01/28 14:17:06;;;;;;;22.45;6.10;;;27.90;50.90;;;;;;5032423;28;20373;-82
2022/01/28 14:19:51;;;;;;;19.33;5.03;;;27.90;50.70;;;;;;5031902;28;20108;-73
2022/01/28 14:22:19;;;;;;;35.80;5.45;;;27.90;50.40;;;;;;5032812;28;20372;-77
2022/01/28 14:24:47;;;;;;;34.20;5.45;;;27.80;50.30;;;;;;5032438;28;20071;-83
2022/01/28 14:30:04;;;;;;;25.98;4.28;;;27.90;50.70;;;;;;5033045;28;20470;-83
2022/01/28 14:32:34;;;;;;;29.27;3.75;;;27.80;51.30;;;;;;5032782;28;20435;-77